sensor_id;sensor_type;location;lat;lon;timestamp;P1;durP1;ratioP1;P2;durP2;ratioP2
66185;SDS011;58178;49.552;27.922;2022-10-16T00:00:28;3.85;;;0.52;;
66185;SDS011;58178;49.552;27.922;2022-10-16T00:02:54;6.05;;;0.60;;
66185;SDS011;58178;49.552;27.922;2022-10-16T00:05:20;1.90;;;0.50;;
66185;SDS011;58178;49.552;27.922;2022-10-16T00:07:46;5.88;;;0.80;;
66185;SDS011;58178;49.552;27.922;2022-10-16T00:10:11;1.45;;;0.32;;
66185;SDS011;58178;49.552;27.922;2022-10-16T00:12:37;2.53;;;1.08;;
66185;SDS011;58178;49.552;27.922;2022-10-16T00:15:03;1.27;;;0.60;;
66185;SDS011;58178;49.552;27.922;2022-10-16T00:17:29;1.23;;;0.50;;
66185;SDS011;58178;49.552;27.922;2022-10-16T00:19:55;5.85;;;0.50;;
66185;SDS011;58178;49.552;27.922;2022-10-16T00:22:21;2.05;;;0.50;;
66185;SDS011;58178;49.552;27.922;2022-10-16T00:24:47;2.72;;;0.40;;
66185;SDS011;58178;49.552;27.922;2022-10-16T00:27:13;1.48;;;0.40;;
66185;SDS011;58178;49.552;27.922;2022-10-16T00:29:39;3.75;;;0.70;;
66185;SDS011;58178;49.552;27.922;2022-10-16T00:32:04;2.13;;;0.55;;
66185;SDS011;58178;49.552;27.922;2022-10-16T00:34:30;1.35;;;0.40;;
66185;SDS011;58178;49.552;27.922;2022-10-16T00:36:56;1.50;;;0.50;;
66185;SDS011;58178;49.552;27.922;2022-10-16T00:39:21;4.97;;;0.50;;
66185;SDS011;58178;49.552;27.922;2022-10-16T00:41:48;0.95;;;0.40;;
66185;SDS011;58178;49.552;27.922;2022-10-16T00:49:34;3.63;;;0.40;;
66185;SDS011;58178;49.552;27.922;2022-10-16T00:52:00;0.57;;;0.32;;
66185;SDS011;58178;49.552;27.922;2022-10-16T00:54:26;0.82;;;0.55;;
66185;SDS011;58178;49.552;27.922;2022-10-16T00:56:54;0.77;;;0.50;;
66185;SDS011;58178;49.552;27.922;2022-10-16T00:59:24;1.27;;;0.40;;
66185;SDS011;58178;49.552;27.922;2022-10-16T01:01:52;1.23;;;0.50;;
66185;SDS011;58178;49.552;27.922;2022-10-16T01:04:18;0.80;;;0.43;;
66185;SDS011;58178;49.552;27.922;2022-10-16T01:12:10;1.33;;;0.32;;
66185;SDS011;58178;49.552;27.922;2022-10-16T01:20:31;0.32;;;0.32;;
66185;SDS011;58178;49.552;27.922;2022-10-16T01:28:40;1.17;;;0.50;;
66185;SDS011;58178;49.552;27.922;2022-10-16T01:31:25;1.10;;;0.40;;
66185;SDS011;58178;49.552;27.922;2022-10-16T01:33:56;2.92;;;0.52;;
66185;SDS011;58178;49.552;27.922;2022-10-16T01:38:52;0.30;;;0.30;;
66185;SDS011;58178;49.552;27.922;2022-10-16T01:41:26;1.83;;;0.40;;
66185;SDS011;58178;49.552;27.922;2022-10-16T01:46:30;3.03;;;0.50;;
66185;SDS011;58178;49.552;27.922;2022-10-16T01:48:57;4.25;;;0.70;;
66185;SDS011;58178;49.552;27.922;2022-10-16T01:51:24;3.38;;;0.35;;
66185;SDS011;58178;49.552;27.922;2022-10-16T01:53:52;2.67;;;0.35;;
66185;SDS011;58178;49.552;27.922;2022-10-16T01:56:21;3.08;;;0.50;;
66185;SDS011;58178;49.552;27.922;2022-10-16T01:58:49;3.22;;;0.63;;
66185;SDS011;58178;49.552;27.922;2022-10-16T02:01:19;0.88;;;0.40;;
66185;SDS011;58178;49.552;27.922;2022-10-16T02:03:48;0.80;;;0.40;;
66185;SDS011;58178;49.552;27.922;2022-10-16T02:06:16;0.65;;;0.40;;
66185;SDS011;58178;49.552;27.922;2022-10-16T02:08:42;3.20;;;0.60;;
66185;SDS011;58178;49.552;27.922;2022-10-16T02:11:09;2.17;;;0.35;;
66185;SDS011;58178;49.552;27.922;2022-10-16T02:13:39;1.15;;;0.40;;
66185;SDS011;58178;49.552;27.922;2022-10-16T02:16:17;2.63;;;0.32;;
66185;SDS011;58178;49.552;27.922;2022-10-16T02:18:43;1.55;;;0.50;;
66185;SDS011;58178;49.552;27.922;2022-10-16T02:21:19;4.15;;;0.60;;
66185;SDS011;58178;49.552;27.922;2022-10-16T02:29:11;1.83;;;0.40;;
66185;SDS011;58178;49.552;27.922;2022-10-16T02:31:41;3.38;;;0.50;;
66185;SDS011;58178;49.552;27.922;2022-10-16T02:34:09;2.13;;;0.50;;
66185;SDS011;58178;49.552;27.922;2022-10-16T02:36:37;0.98;;;0.30;;
66185;SDS011;58178;49.552;27.922;2022-10-16T02:39:03;4.07;;;0.63;;
66185;SDS011;58178;49.552;27.922;2022-10-16T02:41:30;0.82;;;0.30;;
66185;SDS011;58178;49.552;27.922;2022-10-16T02:43:55;2.47;;;0.32;;
66185;SDS011;58178;49.552;27.922;2022-10-16T02:46:21;0.73;;;0.30;;
66185;SDS011;58178;49.552;27.922;2022-10-16T02:48:47;0.95;;;0.50;;
66185;SDS011;58178;49.552;27.922;2022-10-16T02:51:12;0.80;;;0.40;;
66185;SDS011;58178;49.552;27.922;2022-10-16T02:53:38;2.20;;;0.40;;
66185;SDS011;58178;49.552;27.922;2022-10-16T02:56:04;1.95;;;0.40;;
66185;SDS011;58178;49.552;27.922;2022-10-16T02:58:30;5.07;;;0.73;;
66185;SDS011;58178;49.552;27.922;2022-10-16T03:00:55;4.18;;;0.57;;
66185;SDS011;58178;49.552;27.922;2022-10-16T03:03:21;7.30;;;0.80;;
66185;SDS011;58178;49.552;27.922;2022-10-16T03:05:47;4.65;;;0.85;;
66185;SDS011;58178;49.552;27.922;2022-10-16T03:08:13;1.85;;;0.80;;
66185;SDS011;58178;49.552;27.922;2022-10-16T03:10:39;0.77;;;0.43;;
66185;SDS011;58178;49.552;27.922;2022-10-16T03:13:05;0.47;;;0.43;;
66185;SDS011;58178;49.552;27.922;2022-10-16T03:15:30;1.88;;;0.50;;
66185;SDS011;58178;49.552;27.922;2022-10-16T03:17:59;1.50;;;0.50;;
66185;SDS011;58178;49.552;27.922;2022-10-16T03:20:25;3.70;;;0.68;;
66185;SDS011;58178;49.552;27.922;2022-10-16T03:22:51;5.85;;;0.52;;
66185;SDS011;58178;49.552;27.922;2022-10-16T03:25:17;2.72;;;0.45;;
66185;SDS011;58178;49.552;27.922;2022-10-16T03:27:43;0.93;;;0.35;;
66185;SDS011;58178;49.552;27.922;2022-10-16T03:30:09;4.70;;;0.70;;
66185;SDS011;58178;49.552;27.922;2022-10-16T03:32:35;0.93;;;0.43;;
66185;SDS011;58178;49.552;27.922;2022-10-16T03:35:00;1.20;;;0.47;;
66185;SDS011;58178;49.552;27.922;2022-10-16T03:37:26;2.70;;;0.60;;
66185;SDS011;58178;49.552;27.922;2022-10-16T03:39:52;3.30;;;0.50;;
66185;SDS011;58178;49.552;27.922;2022-10-16T03:42:18;0.50;;;0.40;;
66185;SDS011;58178;49.552;27.922;2022-10-16T03:44:43;2.80;;;0.45;;
66185;SDS011;58178;49.552;27.922;2022-10-16T03:47:09;2.42;;;0.52;;
66185;SDS011;58178;49.552;27.922;2022-10-16T03:49:35;2.58;;;0.50;;
66185;SDS011;58178;49.552;27.922;2022-10-16T03:52:01;2.55;;;0.60;;
66185;SDS011;58178;49.552;27.922;2022-10-16T03:54:26;3.30;;;0.50;;
66185;SDS011;58178;49.552;27.922;2022-10-16T03:56:52;2.15;;;0.50;;
66185;SDS011;58178;49.552;27.922;2022-10-16T03:59:18;1.00;;;0.60;;
66185;SDS011;58178;49.552;27.922;2022-10-16T04:01:43;1.27;;;0.60;;
66185;SDS011;58178;49.552;27.922;2022-10-16T04:04:09;3.08;;;0.60;;
66185;SDS011;58178;49.552;27.922;2022-10-16T04:06:35;6.95;;;0.57;;
66185;SDS011;58178;49.552;27.922;2022-10-16T04:09:01;1.40;;;0.65;;
66185;SDS011;58178;49.552;27.922;2022-10-16T04:11:26;1.70;;;0.60;;
66185;SDS011;58178;49.552;27.922;2022-10-16T04:13:52;1.60;;;0.43;;
66185;SDS011;58178;49.552;27.922;2022-10-16T04:16:18;2.92;;;0.63;;
66185;SDS011;58178;49.552;27.922;2022-10-16T04:18:43;3.95;;;0.50;;
66185;SDS011;58178;49.552;27.922;2022-10-16T04:21:09;3.28;;;0.70;;
66185;SDS011;58178;49.552;27.922;2022-10-16T04:23:35;1.48;;;0.57;;
66185;SDS011;58178;49.552;27.922;2022-10-16T04:26:00;1.92;;;0.70;;
66185;SDS011;58178;49.552;27.922;2022-10-16T04:28:26;0.77;;;0.60;;
66185;SDS011;58178;49.552;27.922;2022-10-16T04:30:52;2.53;;;0.68;;
66185;SDS011;58178;49.552;27.922;2022-10-16T04:33:18;3.63;;;0.52;;
66185;SDS011;58178;49.552;27.922;2022-10-16T04:35:44;2.45;;;0.73;;
66185;SDS011;58178;49.552;27.922;2022-10-16T04:38:10;1.83;;;0.47;;
66185;SDS011;58178;49.552;27.922;2022-10-16T04:40:35;3.22;;;0.77;;
66185;SDS011;58178;49.552;27.922;2022-10-16T04:43:04;0.93;;;0.68;;
66185;SDS011;58178;49.552;27.922;2022-10-16T04:45:32;1.42;;;0.88;;
66185;SDS011;58178;49.552;27.922;2022-10-16T04:47:58;1.77;;;0.63;;
66185;SDS011;58178;49.552;27.922;2022-10-16T04:50:24;3.45;;;0.80;;
66185;SDS011;58178;49.552;27.922;2022-10-16T04:52:50;3.20;;;0.80;;
66185;SDS011;58178;49.552;27.922;2022-10-16T04:55:15;2.33;;;0.60;;
66185;SDS011;58178;49.552;27.922;2022-10-16T04:57:41;4.18;;;1.00;;
66185;SDS011;58178;49.552;27.922;2022-10-16T05:00:07;1.80;;;0.65;;
66185;SDS011;58178;49.552;27.922;2022-10-16T05:02:33;4.85;;;1.08;;
66185;SDS011;58178;49.552;27.922;2022-10-16T05:04:59;2.50;;;0.80;;
66185;SDS011;58178;49.552;27.922;2022-10-16T05:07:25;2.45;;;0.90;;
66185;SDS011;58178;49.552;27.922;2022-10-16T05:09:50;2.88;;;0.70;;
66185;SDS011;58178;49.552;27.922;2022-10-16T05:12:16;2.97;;;0.88;;
66185;SDS011;58178;49.552;27.922;2022-10-16T05:14:42;5.25;;;1.30;;
66185;SDS011;58178;49.552;27.922;2022-10-16T05:17:07;4.90;;;1.02;;
66185;SDS011;58178;49.552;27.922;2022-10-16T05:19:33;1.13;;;0.80;;
66185;SDS011;58178;49.552;27.922;2022-10-16T05:21:59;3.22;;;1.10;;
66185;SDS011;58178;49.552;27.922;2022-10-16T05:24:25;2.38;;;0.90;;
66185;SDS011;58178;49.552;27.922;2022-10-16T05:26:51;2.53;;;1.10;;
66185;SDS011;58178;49.552;27.922;2022-10-16T05:29:17;2.78;;;0.93;;
66185;SDS011;58178;49.552;27.922;2022-10-16T05:31:43;1.67;;;0.90;;
66185;SDS011;58178;49.552;27.922;2022-10-16T05:34:08;2.20;;;0.98;;
66185;SDS011;58178;49.552;27.922;2022-10-16T05:36:34;4.25;;;1.08;;
66185;SDS011;58178;49.552;27.922;2022-10-16T05:39:00;2.55;;;0.98;;
66185;SDS011;58178;49.552;27.922;2022-10-16T05:41:26;1.95;;;0.70;;
66185;SDS011;58178;49.552;27.922;2022-10-16T05:43:52;4.15;;;0.95;;
66185;SDS011;58178;49.552;27.922;2022-10-16T05:46:18;1.63;;;0.82;;
66185;SDS011;58178;49.552;27.922;2022-10-16T05:48:43;5.93;;;2.03;;
66185;SDS011;58178;49.552;27.922;2022-10-16T05:51:10;1.55;;;1.00;;
66185;SDS011;58178;49.552;27.922;2022-10-16T05:53:38;4.18;;;1.42;;
66185;SDS011;58178;49.552;27.922;2022-10-16T05:56:05;3.30;;;0.85;;
66185;SDS011;58178;49.552;27.922;2022-10-16T05:58:32;4.93;;;1.33;;
66185;SDS011;58178;49.552;27.922;2022-10-16T06:01:01;2.15;;;1.00;;
66185;SDS011;58178;49.552;27.922;2022-10-16T06:03:28;3.10;;;1.40;;
66185;SDS011;58178;49.552;27.922;2022-10-16T06:05:53;7.85;;;0.90;;
66185;SDS011;58178;49.552;27.922;2022-10-16T06:08:20;3.53;;;1.33;;
66185;SDS011;58178;49.552;27.922;2022-10-16T06:10:47;4.03;;;1.10;;
66185;SDS011;58178;49.552;27.922;2022-10-16T06:13:13;1.50;;;0.93;;
66185;SDS011;58178;49.552;27.922;2022-10-16T06:15:39;3.83;;;1.02;;
66185;SDS011;58178;49.552;27.922;2022-10-16T06:18:07;3.85;;;1.20;;
66185;SDS011;58178;49.552;27.922;2022-10-16T06:20:33;5.22;;;1.50;;
66185;SDS011;58178;49.552;27.922;2022-10-16T06:22:59;2.47;;;0.90;;
66185;SDS011;58178;49.552;27.922;2022-10-16T06:25:25;6.13;;;1.42;;
66185;SDS011;58178;49.552;27.922;2022-10-16T06:27:53;4.70;;;1.38;;
66185;SDS011;58178;49.552;27.922;2022-10-16T06:30:28;3.17;;;1.17;;
66185;SDS011;58178;49.552;27.922;2022-10-16T06:33:04;2.28;;;1.08;;
66185;SDS011;58178;49.552;27.922;2022-10-16T06:35:29;4.22;;;1.20;;
66185;SDS011;58178;49.552;27.922;2022-10-16T06:37:56;3.28;;;1.30;;
66185;SDS011;58178;49.552;27.922;2022-10-16T06:40:22;2.30;;;1.15;;
66185;SDS011;58178;49.552;27.922;2022-10-16T06:42:55;3.35;;;1.20;;
66185;SDS011;58178;49.552;27.922;2022-10-16T06:45:21;2.90;;;1.27;;
66185;SDS011;58178;49.552;27.922;2022-10-16T06:47:47;3.75;;;1.23;;
66185;SDS011;58178;49.552;27.922;2022-10-16T06:50:12;2.05;;;1.33;;
66185;SDS011;58178;49.552;27.922;2022-10-16T06:52:38;3.22;;;1.13;;
66185;SDS011;58178;49.552;27.922;2022-10-16T06:55:04;3.58;;;1.17;;
66185;SDS011;58178;49.552;27.922;2022-10-16T06:57:30;5.65;;;1.13;;
66185;SDS011;58178;49.552;27.922;2022-10-16T07:08:34;6.30;;;1.40;;
66185;SDS011;58178;49.552;27.922;2022-10-16T07:11:08;4.50;;;1.20;;
66185;SDS011;58178;49.552;27.922;2022-10-16T07:16:42;2.97;;;1.08;;
66185;SDS011;58178;49.552;27.922;2022-10-16T07:19:35;2.97;;;1.20;;
66185;SDS011;58178;49.552;27.922;2022-10-16T07:22:13;2.13;;;1.10;;
66185;SDS011;58178;49.552;27.922;2022-10-16T07:24:42;6.32;;;1.55;;
66185;SDS011;58178;49.552;27.922;2022-10-16T07:27:08;3.17;;;1.17;;
66185;SDS011;58178;49.552;27.922;2022-10-16T07:29:34;3.53;;;1.08;;
66185;SDS011;58178;49.552;27.922;2022-10-16T07:31:59;1.42;;;0.95;;
66185;SDS011;58178;49.552;27.922;2022-10-16T07:34:26;2.13;;;1.23;;
66185;SDS011;58178;49.552;27.922;2022-10-16T07:36:52;6.18;;;1.20;;
66185;SDS011;58178;49.552;27.922;2022-10-16T07:39:18;2.95;;;1.20;;
66185;SDS011;58178;49.552;27.922;2022-10-16T07:41:44;1.40;;;1.10;;
66185;SDS011;58178;49.552;27.922;2022-10-16T07:44:10;5.75;;;1.00;;
66185;SDS011;58178;49.552;27.922;2022-10-16T07:46:35;2.08;;;1.25;;
66185;SDS011;58178;49.552;27.922;2022-10-16T07:49:02;1.55;;;1.02;;
66185;SDS011;58178;49.552;27.922;2022-10-16T07:51:28;3.05;;;1.00;;
66185;SDS011;58178;49.552;27.922;2022-10-16T07:53:53;3.78;;;0.80;;
66185;SDS011;58178;49.552;27.922;2022-10-16T07:56:20;2.50;;;1.20;;
66185;SDS011;58178;49.552;27.922;2022-10-16T07:58:46;2.28;;;0.90;;
66185;SDS011;58178;49.552;27.922;2022-10-16T08:01:14;3.50;;;0.85;;
66185;SDS011;58178;49.552;27.922;2022-10-16T08:03:48;1.80;;;0.55;;
66185;SDS011;58178;49.552;27.922;2022-10-16T08:06:15;2.30;;;0.55;;
66185;SDS011;58178;49.552;27.922;2022-10-16T08:08:42;3.65;;;0.70;;
66185;SDS011;58178;49.552;27.922;2022-10-16T08:11:07;1.42;;;0.80;;
66185;SDS011;58178;49.552;27.922;2022-10-16T08:13:33;1.80;;;0.43;;
66185;SDS011;58178;49.552;27.922;2022-10-16T08:15:59;2.28;;;0.73;;
66185;SDS011;58178;49.552;27.922;2022-10-16T08:18:25;2.95;;;0.68;;
66185;SDS011;58178;49.552;27.922;2022-10-16T08:20:57;3.22;;;0.63;;
66185;SDS011;58178;49.552;27.922;2022-10-16T08:23:24;3.42;;;0.60;;
66185;SDS011;58178;49.552;27.922;2022-10-16T08:25:51;3.00;;;0.82;;
66185;SDS011;58178;49.552;27.922;2022-10-16T08:28:18;4.32;;;0.68;;
66185;SDS011;58178;49.552;27.922;2022-10-16T08:30:44;4.68;;;0.75;;
66185;SDS011;58178;49.552;27.922;2022-10-16T08:33:10;1.65;;;0.50;;
66185;SDS011;58178;49.552;27.922;2022-10-16T08:35:35;5.63;;;0.65;;
66185;SDS011;58178;49.552;27.922;2022-10-16T08:38:04;5.25;;;0.93;;
66185;SDS011;58178;49.552;27.922;2022-10-16T08:40:31;1.92;;;0.50;;
66185;SDS011;58178;49.552;27.922;2022-10-16T08:45:56;3.67;;;0.80;;
66185;SDS011;58178;49.552;27.922;2022-10-16T08:51:17;1.85;;;0.60;;
66185;SDS011;58178;49.552;27.922;2022-10-16T08:53:54;5.05;;;0.73;;
66185;SDS011;58178;49.552;27.922;2022-10-16T08:56:22;3.13;;;0.90;;
66185;SDS011;58178;49.552;27.922;2022-10-16T08:58:48;1.45;;;0.50;;
66185;SDS011;58178;49.552;27.922;2022-10-16T09:01:15;4.78;;;0.70;;
66185;SDS011;58178;49.552;27.922;2022-10-16T09:06:40;5.15;;;0.75;;
66185;SDS011;58178;49.552;27.922;2022-10-16T09:17:48;5.93;;;0.60;;
66185;SDS011;58178;49.552;27.922;2022-10-16T09:23:21;2.13;;;0.80;;
66185;SDS011;58178;49.552;27.922;2022-10-16T09:25:50;12.45;;;1.38;;
66185;SDS011;58178;49.552;27.922;2022-10-16T09:28:17;3.17;;;0.50;;
66185;SDS011;58178;49.552;27.922;2022-10-16T09:30:43;2.20;;;0.80;;
66185;SDS011;58178;49.552;27.922;2022-10-16T09:33:10;2.28;;;0.68;;
66185;SDS011;58178;49.552;27.922;2022-10-16T09:38:03;4.82;;;0.82;;
66185;SDS011;58178;49.552;27.922;2022-10-16T09:43:20;4.90;;;1.02;;
66185;SDS011;58178;49.552;27.922;2022-10-16T09:45:42;3.42;;;0.70;;
66185;SDS011;58178;49.552;27.922;2022-10-16T09:48:12;6.65;;;1.05;;
66185;SDS011;58178;49.552;27.922;2022-10-16T09:50:38;6.10;;;1.42;;
66185;SDS011;58178;49.552;27.922;2022-10-16T09:53:14;3.72;;;1.20;;
66185;SDS011;58178;49.552;27.922;2022-10-16T09:55:52;4.43;;;1.10;;
66185;SDS011;58178;49.552;27.922;2022-10-16T09:58:21;3.17;;;0.80;;
66185;SDS011;58178;49.552;27.922;2022-10-16T10:00:52;3.58;;;0.80;;
66185;SDS011;58178;49.552;27.922;2022-10-16T10:08:56;3.92;;;1.00;;
66185;SDS011;58178;49.552;27.922;2022-10-16T10:11:39;4.45;;;1.02;;
66185;SDS011;58178;49.552;27.922;2022-10-16T10:14:15;3.40;;;1.05;;
66185;SDS011;58178;49.552;27.922;2022-10-16T10:16:45;2.63;;;0.80;;
66185;SDS011;58178;49.552;27.922;2022-10-16T10:19:19;3.58;;;0.90;;
66185;SDS011;58178;49.552;27.922;2022-10-16T10:21:48;3.75;;;1.40;;
66185;SDS011;58178;49.552;27.922;2022-10-16T10:24:16;2.30;;;0.90;;
66185;SDS011;58178;49.552;27.922;2022-10-16T10:26:45;5.05;;;1.48;;
66185;SDS011;58178;49.552;27.922;2022-10-16T10:29:36;4.38;;;0.98;;
66185;SDS011;58178;49.552;27.922;2022-10-16T10:37:13;5.30;;;0.85;;
66185;SDS011;58178;49.552;27.922;2022-10-16T10:39:51;6.38;;;1.10;;
66185;SDS011;58178;49.552;27.922;2022-10-16T10:42:27;4.85;;;1.35;;
66185;SDS011;58178;49.552;27.922;2022-10-16T10:50:13;3.60;;;0.93;;
66185;SDS011;58178;49.552;27.922;2022-10-16T10:58:10;2.30;;;0.85;;
66185;SDS011;58178;49.552;27.922;2022-10-16T11:06:24;4.10;;;0.93;;
66185;SDS011;58178;49.552;27.922;2022-10-16T11:08:59;6.78;;;0.95;;
66185;SDS011;58178;49.552;27.922;2022-10-16T11:11:34;2.30;;;0.60;;
66185;SDS011;58178;49.552;27.922;2022-10-16T11:16:29;3.75;;;0.82;;
66185;SDS011;58178;49.552;27.922;2022-10-16T11:22:30;4.53;;;0.95;;
66185;SDS011;58178;49.552;27.922;2022-10-16T11:28:09;3.30;;;0.90;;
66185;SDS011;58178;49.552;27.922;2022-10-16T11:38:32;1.75;;;0.93;;
66185;SDS011;58178;49.552;27.922;2022-10-16T11:46:40;2.90;;;1.02;;
66185;SDS011;58178;49.552;27.922;2022-10-16T11:49:42;6.18;;;1.13;;
66185;SDS011;58178;49.552;27.922;2022-10-16T11:52:19;4.87;;;1.30;;
66185;SDS011;58178;49.552;27.922;2022-10-16T11:54:52;4.85;;;1.40;;
66185;SDS011;58178;49.552;27.922;2022-10-16T11:57:26;3.95;;;0.90;;
66185;SDS011;58178;49.552;27.922;2022-10-16T12:00:02;1.83;;;0.57;;
66185;SDS011;58178;49.552;27.922;2022-10-16T12:02:51;3.55;;;0.70;;
66185;SDS011;58178;49.552;27.922;2022-10-16T12:08:29;5.10;;;0.90;;
66185;SDS011;58178;49.552;27.922;2022-10-16T12:11:05;2.95;;;0.63;;
66185;SDS011;58178;49.552;27.922;2022-10-16T12:16:54;2.10;;;0.38;;
66185;SDS011;58178;49.552;27.922;2022-10-16T12:19:21;5.32;;;0.65;;
66185;SDS011;58178;49.552;27.922;2022-10-16T12:21:49;3.22;;;0.40;;
66185;SDS011;58178;49.552;27.922;2022-10-16T12:27:02;2.47;;;0.60;;
66185;SDS011;58178;49.552;27.922;2022-10-16T12:29:37;5.82;;;0.77;;
66185;SDS011;58178;49.552;27.922;2022-10-16T12:32:05;2.33;;;0.50;;
66185;SDS011;58178;49.552;27.922;2022-10-16T12:35:04;1.85;;;0.50;;
66185;SDS011;58178;49.552;27.922;2022-10-16T12:37:35;2.47;;;0.85;;
66185;SDS011;58178;49.552;27.922;2022-10-16T12:40:15;2.28;;;0.50;;
66185;SDS011;58178;49.552;27.922;2022-10-16T12:42:49;4.05;;;0.75;;
66185;SDS011;58178;49.552;27.922;2022-10-16T12:45:23;2.83;;;0.70;;
66185;SDS011;58178;49.552;27.922;2022-10-16T12:47:50;2.80;;;0.60;;
66185;SDS011;58178;49.552;27.922;2022-10-16T12:50:27;3.53;;;0.75;;
66185;SDS011;58178;49.552;27.922;2022-10-16T12:53:04;1.60;;;0.60;;
66185;SDS011;58178;49.552;27.922;2022-10-16T13:01:10;1.58;;;0.50;;
66185;SDS011;58178;49.552;27.922;2022-10-16T13:09:15;1.83;;;0.50;;
66185;SDS011;58178;49.552;27.922;2022-10-16T13:12:00;3.40;;;0.50;;
66185;SDS011;58178;49.552;27.922;2022-10-16T13:14:40;1.00;;;0.32;;
66185;SDS011;58178;49.552;27.922;2022-10-16T13:17:12;1.95;;;0.50;;
66185;SDS011;58178;49.552;27.922;2022-10-16T13:25:41;0.85;;;0.20;;
66185;SDS011;58178;49.552;27.922;2022-10-16T13:28:21;1.67;;;0.40;;
66185;SDS011;58178;49.552;27.922;2022-10-16T13:30:52;2.95;;;0.50;;
66185;SDS011;58178;49.552;27.922;2022-10-16T13:33:38;1.92;;;0.80;;
66185;SDS011;58178;49.552;27.922;2022-10-16T13:36:05;2.50;;;0.75;;
66185;SDS011;58178;49.552;27.922;2022-10-16T13:38:35;1.00;;;0.70;;
66185;SDS011;58178;49.552;27.922;2022-10-16T13:41:02;6.70;;;1.30;;
66185;SDS011;58178;49.552;27.922;2022-10-16T13:46:20;2.63;;;0.60;;
66185;SDS011;58178;49.552;27.922;2022-10-16T13:48:57;3.17;;;0.43;;
66185;SDS011;58178;49.552;27.922;2022-10-16T13:51:26;2.10;;;0.55;;
66185;SDS011;58178;49.552;27.922;2022-10-16T13:53:52;1.98;;;0.40;;
66185;SDS011;58178;49.552;27.922;2022-10-16T13:56:21;1.45;;;0.35;;
66185;SDS011;58178;49.552;27.922;2022-10-16T13:58:58;0.52;;;0.30;;
66185;SDS011;58178;49.552;27.922;2022-10-16T14:01:35;2.30;;;0.50;;
66185;SDS011;58178;49.552;27.922;2022-10-16T14:04:07;6.50;;;0.55;;
66185;SDS011;58178;49.552;27.922;2022-10-16T14:06:34;2.30;;;0.30;;
66185;SDS011;58178;49.552;27.922;2022-10-16T14:09:06;2.50;;;0.40;;
66185;SDS011;58178;49.552;27.922;2022-10-16T14:11:33;2.83;;;0.60;;
66185;SDS011;58178;49.552;27.922;2022-10-16T14:14:00;2.75;;;0.35;;
66185;SDS011;58178;49.552;27.922;2022-10-16T14:16:28;1.55;;;0.32;;
66185;SDS011;58178;49.552;27.922;2022-10-16T14:21:28;1.95;;;0.50;;
66185;SDS011;58178;49.552;27.922;2022-10-16T14:23:54;1.40;;;0.63;;
66185;SDS011;58178;49.552;27.922;2022-10-16T14:26:22;1.52;;;0.40;;
66185;SDS011;58178;49.552;27.922;2022-10-16T14:29:00;2.55;;;0.57;;
66185;SDS011;58178;49.552;27.922;2022-10-16T14:31:37;2.72;;;0.80;;
66185;SDS011;58178;49.552;27.922;2022-10-16T14:34:04;3.00;;;0.60;;
66185;SDS011;58178;49.552;27.922;2022-10-16T14:36:47;3.63;;;0.47;;
66185;SDS011;58178;49.552;27.922;2022-10-16T14:39:19;2.53;;;0.40;;
66185;SDS011;58178;49.552;27.922;2022-10-16T14:41:50;3.55;;;0.43;;
66185;SDS011;58178;49.552;27.922;2022-10-16T14:44:19;2.83;;;0.50;;
66185;SDS011;58178;49.552;27.922;2022-10-16T14:49:18;2.15;;;0.82;;
66185;SDS011;58178;49.552;27.922;2022-10-16T14:51:45;1.58;;;0.40;;
66185;SDS011;58178;49.552;27.922;2022-10-16T14:54:11;1.83;;;0.22;;
66185;SDS011;58178;49.552;27.922;2022-10-16T14:56:46;3.47;;;0.57;;
66185;SDS011;58178;49.552;27.922;2022-10-16T14:59:30;1.95;;;0.57;;
66185;SDS011;58178;49.552;27.922;2022-10-16T15:01:56;2.13;;;0.47;;
66185;SDS011;58178;49.552;27.922;2022-10-16T15:04:22;1.92;;;0.55;;
66185;SDS011;58178;49.552;27.922;2022-10-16T15:06:48;2.40;;;0.43;;
66185;SDS011;58178;49.552;27.922;2022-10-16T15:09:14;4.05;;;0.73;;
66185;SDS011;58178;49.552;27.922;2022-10-16T15:11:39;6.15;;;0.98;;
66185;SDS011;58178;49.552;27.922;2022-10-16T15:14:05;4.35;;;0.95;;
66185;SDS011;58178;49.552;27.922;2022-10-16T15:16:31;4.63;;;0.55;;
66185;SDS011;58178;49.552;27.922;2022-10-16T15:18:57;3.80;;;0.70;;
66185;SDS011;58178;49.552;27.922;2022-10-16T15:21:27;4.13;;;0.50;;
66185;SDS011;58178;49.552;27.922;2022-10-16T15:23:55;3.15;;;0.52;;
66185;SDS011;58178;49.552;27.922;2022-10-16T15:26:24;2.30;;;0.80;;
66185;SDS011;58178;49.552;27.922;2022-10-16T15:28:50;4.30;;;0.60;;
66185;SDS011;58178;49.552;27.922;2022-10-16T15:31:19;2.03;;;0.73;;
66185;SDS011;58178;49.552;27.922;2022-10-16T15:33:49;1.92;;;0.85;;
66185;SDS011;58178;49.552;27.922;2022-10-16T15:36:24;3.88;;;0.80;;
66185;SDS011;58178;49.552;27.922;2022-10-16T15:38:50;3.15;;;0.80;;
66185;SDS011;58178;49.552;27.922;2022-10-16T15:41:16;2.83;;;0.70;;
66185;SDS011;58178;49.552;27.922;2022-10-16T15:43:42;2.05;;;1.10;;
66185;SDS011;58178;49.552;27.922;2022-10-16T15:46:09;3.00;;;1.05;;
66185;SDS011;58178;49.552;27.922;2022-10-16T15:48:37;5.60;;;0.88;;
66185;SDS011;58178;49.552;27.922;2022-10-16T15:51:06;4.10;;;1.00;;
66185;SDS011;58178;49.552;27.922;2022-10-16T15:53:32;4.97;;;1.38;;
66185;SDS011;58178;49.552;27.922;2022-10-16T15:56:02;5.75;;;1.40;;
66185;SDS011;58178;49.552;27.922;2022-10-16T15:58:32;4.30;;;1.10;;
66185;SDS011;58178;49.552;27.922;2022-10-16T16:00:58;2.53;;;1.00;;
66185;SDS011;58178;49.552;27.922;2022-10-16T16:03:29;4.65;;;1.30;;
66185;SDS011;58178;49.552;27.922;2022-10-16T16:05:55;4.90;;;1.33;;
66185;SDS011;58178;49.552;27.922;2022-10-16T16:08:20;3.72;;;1.38;;
66185;SDS011;58178;49.552;27.922;2022-10-16T16:11:06;4.03;;;1.70;;
66185;SDS011;58178;49.552;27.922;2022-10-16T16:13:33;3.88;;;1.30;;
66185;SDS011;58178;49.552;27.922;2022-10-16T16:15:59;5.68;;;1.48;;
66185;SDS011;58178;49.552;27.922;2022-10-16T16:18:24;6.47;;;1.70;;
66185;SDS011;58178;49.552;27.922;2022-10-16T16:20:50;3.22;;;1.75;;
66185;SDS011;58178;49.552;27.922;2022-10-16T16:23:16;2.83;;;1.58;;
66185;SDS011;58178;49.552;27.922;2022-10-16T16:25:42;4.78;;;1.40;;
66185;SDS011;58178;49.552;27.922;2022-10-16T16:28:08;5.30;;;1.50;;
66185;SDS011;58178;49.552;27.922;2022-10-16T16:30:35;4.75;;;1.65;;
66185;SDS011;58178;49.552;27.922;2022-10-16T16:33:02;5.35;;;1.80;;
66185;SDS011;58178;49.552;27.922;2022-10-16T16:35:28;3.30;;;1.08;;
66185;SDS011;58178;49.552;27.922;2022-10-16T16:37:54;3.85;;;1.48;;
66185;SDS011;58178;49.552;27.922;2022-10-16T16:40:20;2.80;;;1.20;;
66185;SDS011;58178;49.552;27.922;2022-10-16T16:42:48;6.25;;;1.35;;
66185;SDS011;58178;49.552;27.922;2022-10-16T16:45:14;4.47;;;1.20;;
66185;SDS011;58178;49.552;27.922;2022-10-16T16:47:40;2.40;;;0.88;;
66185;SDS011;58178;49.552;27.922;2022-10-16T16:50:06;7.78;;;1.23;;
66185;SDS011;58178;49.552;27.922;2022-10-16T16:52:32;5.97;;;1.42;;
66185;SDS011;58178;49.552;27.922;2022-10-16T16:54:59;3.08;;;1.27;;
66185;SDS011;58178;49.552;27.922;2022-10-16T16:57:27;4.90;;;0.90;;
66185;SDS011;58178;49.552;27.922;2022-10-16T16:59:55;5.50;;;1.10;;
66185;SDS011;58178;49.552;27.922;2022-10-16T17:02:21;5.25;;;1.75;;
66185;SDS011;58178;49.552;27.922;2022-10-16T17:04:47;9.43;;;1.63;;
66185;SDS011;58178;49.552;27.922;2022-10-16T17:07:13;2.13;;;1.20;;
66185;SDS011;58178;49.552;27.922;2022-10-16T17:09:41;4.43;;;0.82;;
66185;SDS011;58178;49.552;27.922;2022-10-16T17:12:07;5.53;;;1.13;;
66185;SDS011;58178;49.552;27.922;2022-10-16T17:14:33;3.03;;;0.90;;